createdAt,value
2023-04-13T06:06:08.765Z,96371.88
2023-04-13T06:08:38.068Z,96380.53
2023-04-13T06:11:06.976Z,96375.75
2023-04-13T06:13:35.570Z,96371.19
2023-04-13T06:16:03.986Z,96372.75
2023-04-13T06:18:32.230Z,96368.34
2023-04-13T06:21:00.526Z,96366.69
2023-04-13T06:23:30.306Z,96368.50
2023-04-13T06:26:05.575Z,96366.22
2023-04-13T06:28:43.830Z,96349.78
2023-04-13T06:31:18.290Z,96359.44
2023-04-13T06:33:51.155Z,96358.53
2023-04-13T06:36:25.709Z,96358.59
2023-04-13T06:38:57.282Z,96366.09
2023-04-13T06:41:27.272Z,96356.84
2023-04-13T06:44:12.259Z,96352.34
2023-04-13T06:46:51.809Z,96355.06
2023-04-13T06:49:22.212Z,96358.22
2023-04-13T06:51:52.216Z,96363.38
2023-04-13T06:54:22.058Z,96370.19
2023-04-13T06:56:57.565Z,96372.19
2023-04-13T06:59:26.060Z,96376.41
2023-04-13T07:01:54.612Z,96373.59
2023-04-13T07:04:25.709Z,96380.66
2023-04-13T07:06:59.473Z,96385.63
2023-04-13T07:09:29.805Z,96391.84
2023-04-13T07:11:58.872Z,96384.47
2023-04-13T07:14:27.355Z,96392.16
2023-04-13T07:16:55.622Z,96388.03
2023-04-13T07:19:25.715Z,96390.94
2023-04-13T07:21:54.198Z,96394.22
2023-04-13T07:24:23.866Z,96396.53
2023-04-13T07:26:53.826Z,96399.84
2023-04-13T07:29:22.625Z,96404.50
2023-04-13T07:32:00.675Z,96416.38
2023-04-13T07:34:30.932Z,96422.19
2023-04-13T07:36:59.411Z,96412.47
2023-04-13T07:39:28.000Z,96415.28
2023-04-13T07:41:58.633Z,96428.91
2023-04-13T07:44:35.557Z,96419.50
2023-04-13T07:47:04.365Z,96428.84
2023-04-13T07:49:34.140Z,96424.41
2023-04-13T07:52:02.421Z,96426.03
2023-04-13T07:54:35.128Z,96429.56
2023-04-13T07:57:05.708Z,96427.28
2023-04-13T07:59:36.513Z,96442.69
2023-04-13T08:02:05.771Z,96431.78
2023-04-13T08:04:36.902Z,96435.97
2023-04-13T08:07:07.366Z,96443.66
2023-04-13T08:09:37.403Z,96441.28
2023-04-13T08:12:08.327Z,96444.19
2023-04-13T08:14:42.665Z,96433.63
2023-04-13T08:17:12.481Z,96444.03
2023-04-13T08:19:41.619Z,96444.34
2023-04-13T08:22:14.848Z,96444.56
2023-04-13T08:24:44.252Z,96448.88
2023-04-13T08:27:14.097Z,96440.59
2023-04-13T08:29:42.432Z,96449.53
2023-04-13T08:32:10.987Z,96449.91
2023-04-13T08:34:39.981Z,96450.13
2023-04-13T08:37:08.385Z,96445.91
2023-04-13T08:39:38.148Z,96439.66
2023-04-13T08:42:08.160Z,96435.59
2023-04-13T08:44:43.045Z,96443.00
2023-04-13T08:47:12.015Z,96439.72
2023-04-13T08:49:40.927Z,96435.59
2023-04-13T08:52:11.587Z,96433.53
2023-04-13T08:54:42.654Z,96434.16
2023-04-13T08:57:19.444Z,96433.28
2023-04-13T08:59:51.260Z,96434.41
2023-04-13T09:02:24.646Z,96440.09
2023-04-13T09:05:01.005Z,96447.19
2023-04-13T09:07:34.855Z,96445.22
2023-04-13T09:10:10.144Z,96438.50
2023-04-13T09:12:42.317Z,96443.72
2023-04-13T09:15:15.000Z,96443.28
2023-04-13T09:17:57.308Z,96451.38
2023-04-13T09:20:25.856Z,96445.69
2023-04-13T09:22:54.477Z,96445.00
2023-04-13T09:25:24.571Z,96449.91
2023-04-13T09:30:40.428Z,96448.00
2023-04-13T09:33:10.808Z,96450.84
2023-04-13T09:35:39.708Z,96451.94
2023-04-13T09:38:09.010Z,96465.13
2023-04-13T09:40:39.155Z,96462.75
2023-04-13T09:43:09.705Z,96454.31
2023-04-13T09:45:39.198Z,96463.88
2023-04-13T09:48:19.178Z,96459.53
2023-04-13T09:50:47.813Z,96463.06
2023-04-13T09:53:16.116Z,96481.00
2023-04-13T09:55:47.637Z,96475.66
2023-04-13T09:58:17.769Z,96479.09
2023-04-13T10:00:47.548Z,96473.50
2023-04-13T10:03:19.169Z,96478.50
2023-04-13T10:08:27.364Z,96476.38
2023-04-13T10:11:04.405Z,96477.31
2023-04-13T10:13:38.434Z,96480.69
2023-04-13T10:16:33.793Z,96471.25
2023-04-13T10:19:06.685Z,96475.53
2023-04-13T10:21:39.528Z,96473.97
2023-04-13T10:24:12.211Z,96476.06
2023-04-13T10:26:41.769Z,96472.69
2023-04-13T10:29:11.718Z,96472.88
2023-04-13T10:31:41.532Z,96477.31
2023-04-13T10:34:11.356Z,96480.63
2023-04-13T10:36:41.797Z,96479.59
2023-04-13T10:39:10.674Z,96476.22
2023-04-13T10:41:39.113Z,96469.16
2023-04-13T10:44:08.698Z,96476.50
2023-04-13T10:46:37.267Z,96473.63
2023-04-13T10:49:06.825Z,96476.47
2023-04-13T10:51:43.692Z,96459.00
2023-04-13T10:54:14.965Z,96463.50
2023-04-13T10:56:43.254Z,96465.44
2023-04-13T10:59:12.117Z,96462.03
2023-04-13T11:01:41.384Z,96459.25
2023-04-13T11:04:14.029Z,96449.78
2023-04-13T11:06:46.918Z,96448.44
2023-04-13T11:09:17.248Z,96449.00
2023-04-13T11:11:52.682Z,96450.50
2023-04-13T11:14:24.283Z,96446.63
2023-04-13T11:16:58.320Z,96440.13
2023-04-13T11:19:27.273Z,96454.03
2023-04-13T11:21:58.282Z,96449.78
2023-04-13T11:24:33.889Z,96442.06
2023-04-13T11:27:02.418Z,96441.44
2023-04-13T11:29:30.730Z,96440.34
2023-04-13T11:31:59.107Z,96450.03
2023-04-13T11:34:28.842Z,96446.16
2023-04-13T11:37:05.308Z,96444.38
2023-04-13T11:39:38.809Z,96445.88
2023-04-13T11:42:08.194Z,96436.28
2023-04-13T11:44:36.966Z,96443.09
2023-04-13T11:47:06.082Z,96438.22
2023-04-13T11:49:34.623Z,96432.09
2023-04-13T11:52:05.271Z,96438.59
2023-04-13T11:54:33.651Z,96433.75
2023-04-13T11:57:02.560Z,96431.59
2023-04-13T11:59:30.861Z,96426.50
2023-04-13T12:02:03.840Z,96422.25
2023-04-13T12:04:50.080Z,96428.19
2023-04-13T12:07:20.971Z,96421.19
2023-04-13T12:15:12.694Z,96404.97
2023-04-13T12:17:50.095Z,96401.06
2023-04-13T12:20:26.363Z,96400.22
2023-04-13T12:23:05.834Z,96396.59
2023-04-13T12:25:36.928Z,96405.47
2023-04-13T12:28:05.776Z,96407.13
2023-04-13T12:30:34.239Z,96399.25
2023-04-13T12:33:02.618Z,96404.00
2023-04-13T12:35:31.132Z,96399.97
2023-04-13T12:38:00.784Z,96398.97
2023-04-13T12:40:29.187Z,96394.22
2023-04-13T12:42:57.432Z,96395.47
2023-04-13T12:45:28.522Z,96395.88
2023-04-13T12:47:56.773Z,96402.09
2023-04-13T12:50:25.126Z,96403.69
2023-04-13T12:52:53.394Z,96393.94
2023-04-13T12:55:24.024Z,96392.22
2023-04-13T12:57:52.328Z,96386.16
2023-04-13T13:00:22.676Z,96377.75
2023-04-13T13:02:56.652Z,96384.38
2023-04-13T13:05:35.103Z,96380.69
2023-04-13T13:08:03.510Z,96378.84
2023-04-13T13:10:33.836Z,96377.19
2023-04-13T13:13:04.037Z,96382.88
2023-04-13T13:15:32.914Z,96379.59
2023-04-13T13:18:04.084Z,96390.56
2023-04-13T13:20:32.507Z,96386.22
2023-04-13T13:23:00.703Z,96390.50
2023-04-13T13:25:28.968Z,96388.75
2023-04-13T13:28:13.410Z,96394.84
2023-04-13T13:30:44.271Z,96405.09
2023-04-13T13:33:12.818Z,96413.13
2023-04-13T13:35:41.109Z,96412.69
2023-04-13T13:38:09.358Z,96422.28
2023-04-13T13:40:38.780Z,96411.97
2023-04-13T13:43:08.879Z,96414.75
2023-04-13T13:45:37.440Z,96416.38
2023-04-13T13:48:07.025Z,96416.41
2023-04-13T13:50:46.979Z,96421.88
2023-04-13T13:53:15.925Z,96421.84
2023-04-13T13:55:44.202Z,96417.38
2023-04-13T13:58:13.892Z,96408.03
2023-04-13T14:00:42.742Z,96416.66
2023-04-13T14:03:11.976Z,96409.69
2023-04-13T14:05:53.978Z,96409.56
2023-04-13T14:08:22.380Z,96393.84
2023-04-13T14:10:53.071Z,96396.50
2023-04-13T14:13:23.344Z,96401.81
2023-04-13T14:16:03.724Z,96399.25
2023-04-13T14:18:33.981Z,96392.88
2023-04-13T14:21:05.801Z,96392.69
2023-04-13T14:23:37.565Z,96396.78
2023-04-13T14:26:07.537Z,96393.94
2023-04-13T14:28:39.418Z,96389.50
2023-04-13T14:31:09.819Z,96387.78
2023-04-13T14:33:40.707Z,96377.03
2023-04-13T14:36:11.099Z,96381.50
2023-04-13T14:38:39.314Z,96378.94
2023-04-13T14:41:07.960Z,96371.31
2023-04-13T14:43:40.331Z,96356.03
2023-04-13T14:46:11.362Z,96360.16
2023-04-13T14:48:40.126Z,96359.22
2023-04-13T14:51:08.901Z,96345.53
2023-04-13T14:53:37.233Z,96348.91
2023-04-13T14:56:05.820Z,96354.84
2023-04-13T14:58:34.137Z,96359.25
2023-04-13T15:01:04.892Z,96356.59
2023-04-13T15:03:33.778Z,96362.75
2023-04-13T15:06:03.813Z,96358.69
2023-04-13T15:08:34.067Z,96356.53
2023-04-13T15:11:02.407Z,96350.38
2023-04-13T15:13:30.686Z,96354.69
2023-04-13T15:15:59.560Z,96351.84
2023-04-13T15:18:32.796Z,96349.06
2023-04-13T15:21:05.856Z,96354.09
2023-04-13T15:23:35.351Z,96354.88
2023-04-13T15:26:06.167Z,96350.69
2023-04-13T15:28:34.618Z,96345.47
2023-04-13T15:31:04.232Z,96344.63
2023-04-13T15:33:35.058Z,96349.19
2023-04-13T15:36:03.780Z,96356.22
2023-04-13T15:38:31.983Z,96366.47
2023-04-13T15:41:01.612Z,96351.75
2023-04-13T15:43:32.818Z,96346.59
2023-04-13T15:46:02.948Z,96350.88
2023-04-13T15:48:31.714Z,96359.69
2023-04-13T15:51:04.573Z,96376.91
2023-04-13T15:53:32.945Z,96375.16
2023-04-13T15:56:01.837Z,96370.66
2023-04-13T15:58:33.333Z,96375.50
2023-04-13T16:01:03.581Z,96376.28
2023-04-13T16:03:32.529Z,96377.97
2023-04-13T16:06:02.666Z,96379.75
2023-04-13T16:08:31.393Z,96376.13
2023-04-13T16:11:01.413Z,96364.81
2023-04-13T16:13:47.355Z,96368.53
2023-04-13T16:16:17.823Z,96379.75
2023-04-13T16:18:46.296Z,96384.97
2023-04-13T16:21:19.678Z,96380.66
2023-04-13T16:23:52.859Z,96374.59
2023-04-13T16:26:25.598Z,96379.81
2023-04-13T16:28:55.352Z,96374.69
2023-04-13T16:31:26.725Z,96366.97
2023-04-13T16:33:57.900Z,96359.19
2023-04-13T16:36:37.372Z,96356.50
2023-04-13T16:39:16.221Z,96366.88
2023-04-13T16:41:44.855Z,96368.44
2023-04-13T16:44:41.181Z,96364.91
2023-04-13T16:47:12.571Z,96359.66
2023-04-13T16:50:01.358Z,96367.69
2023-04-13T16:52:31.387Z,96361.72
2023-04-13T16:55:00.032Z,96369.31
2023-04-13T16:57:29.631Z,96369.28
2023-04-13T17:00:06.959Z,96381.47
2023-04-13T17:02:38.478Z,96381.31
2023-04-13T17:05:09.315Z,96383.22
2023-04-13T17:07:42.210Z,96370.38
2023-04-13T17:10:13.028Z,96358.34
2023-04-13T17:12:41.912Z,96349.84
2023-04-13T17:15:12.350Z,96353.31
2023-04-13T17:17:41.379Z,96339.78
2023-04-13T17:20:16.782Z,96345.03
2023-04-13T17:22:48.942Z,96343.25
2023-04-13T17:25:20.216Z,96346.13
2023-04-13T17:27:50.435Z,96350.88
2023-04-13T17:30:22.844Z,96352.56
2023-04-13T17:32:51.653Z,96357.03
2023-04-13T17:35:22.069Z,96348.59
2023-04-13T17:37:54.559Z,96350.16
2023-04-13T17:40:25.038Z,96357.94
2023-04-13T17:42:54.121Z,96362.28
2023-04-13T17:45:22.606Z,96350.41
2023-04-13T17:47:51.736Z,96348.44
2023-04-13T17:50:20.566Z,96337.31
2023-04-13T17:52:49.364Z,96344.16
2023-04-13T17:55:25.184Z,96342.59
2023-04-13T17:57:53.901Z,96342.75
2023-04-13T18:00:22.726Z,96338.50
2023-04-13T18:02:54.836Z,96344.47
2023-04-13T18:05:25.761Z,96339.38
2023-04-13T18:07:59.406Z,96357.50
2023-04-13T18:10:31.082Z,96351.59
2023-04-13T18:13:01.503Z,96346.41
2023-04-13T18:15:30.464Z,96354.16
2023-04-13T18:18:04.894Z,96367.94
2023-04-13T18:20:40.529Z,96373.13
2023-04-13T18:23:15.174Z,96372.09
2023-04-13T18:25:45.561Z,96379.78
2023-04-13T18:28:21.287Z,96378.03
2023-04-13T18:30:53.330Z,96381.38
2023-04-13T18:33:22.938Z,96374.84
2023-04-13T18:36:02.640Z,96362.69
2023-04-13T18:38:34.899Z,96366.81
2023-04-13T18:41:08.898Z,96370.19
2023-04-13T18:43:38.408Z,96363.34
2023-04-13T18:46:12.044Z,96365.22
2023-04-13T18:48:44.231Z,96371.25
2023-04-13T18:51:23.595Z,96365.25
2023-04-13T18:53:54.432Z,96368.59
2023-04-13T18:56:28.052Z,96377.25
2023-04-13T18:58:57.161Z,96383.25
2023-04-13T19:01:27.052Z,96377.91
2023-04-13T19:03:56.835Z,96368.53
2023-04-13T19:06:26.427Z,96378.00
2023-04-13T19:08:56.649Z,96378.00
2023-04-13T19:11:27.948Z,96377.22
2023-04-13T19:13:58.131Z,96369.38
2023-04-13T19:16:29.504Z,96366.97
2023-04-13T19:19:00.502Z,96367.63
2023-04-13T19:21:29.765Z,96366.72
2023-04-13T19:23:59.780Z,96364.94
2023-04-13T19:26:31.310Z,96355.63
2023-04-13T19:29:01.633Z,96358.19
2023-04-13T19:31:34.572Z,96350.56
2023-04-13T19:34:05.512Z,96358.16
2023-04-13T19:36:36.083Z,96343.69
2023-04-13T19:39:06.345Z,96344.56
2023-04-13T19:41:39.270Z,96341.06
2023-04-13T19:44:09.585Z,96341.06
2023-04-13T19:46:39.757Z,96329.81
2023-04-13T19:49:09.122Z,96334.94
2023-04-13T19:51:38.260Z,96327.22
2023-04-13T19:54:07.484Z,96326.28
2023-04-13T19:56:39.436Z,96323.84
2023-04-13T19:59:10.107Z,96315.31
2023-04-13T20:01:41.236Z,96311.88
2023-04-13T20:04:13.686Z,96313.63
2023-04-13T20:06:44.310Z,96305.00
2023-04-13T20:09:14.996Z,96306.78
2023-04-13T20:11:48.293Z,96305.06
2023-04-13T20:14:21.463Z,96299.13
2023-04-13T20:16:55.709Z,96294.84
2023-04-13T20:19:37.358Z,96297.50
2023-04-13T20:22:21.600Z,96291.44
2023-04-13T20:25:06.914Z,96297.47
2023-04-13T20:27:42.988Z,96306.91
2023-04-13T20:30:18.532Z,96301.84
2023-04-13T20:32:50.409Z,96300.16
2023-04-13T20:35:21.210Z,96304.41
2023-04-13T20:41:08.357Z,96296.91
2023-04-13T20:43:41.467Z,96295.28
2023-04-13T20:46:11.011Z,96295.34
2023-04-13T20:51:13.468Z,96295.00
2023-04-13T20:53:41.806Z,96284.75
2023-04-13T20:56:10.038Z,96272.50
2023-04-13T20:58:43.713Z,96258.22
2023-04-13T21:01:12.154Z,96258.47
2023-04-13T21:03:41.096Z,96241.34
2023-04-13T21:06:09.706Z,96228.72
2023-04-13T21:08:38.332Z,96227.22
2023-04-13T21:11:07.280Z,96210.59
2023-04-13T21:13:35.837Z,96214.91
2023-04-13T21:16:07.083Z,96214.09
2023-04-13T21:18:35.460Z,96212.66
2023-04-13T21:21:03.770Z,96219.16
2023-04-13T21:23:31.954Z,96213.56
2023-04-13T21:26:00.258Z,96210.00
2023-04-13T21:28:28.525Z,96217.81
2023-04-13T21:30:56.760Z,96209.34
2023-04-13T21:33:26.705Z,96215.34
2023-04-13T21:35:54.998Z,96215.41
2023-04-13T21:38:23.484Z,96215.50
2023-04-13T21:40:51.701Z,96215.78
2023-04-13T21:43:20.184Z,96221.00
2023-04-13T21:45:48.569Z,96204.47
2023-04-13T21:48:17.245Z,96209.44
2023-04-13T21:50:47.747Z,96211.22
2023-04-13T21:53:16.111Z,96208.63
2023-04-13T21:55:44.429Z,96211.31
2023-04-13T21:58:12.964Z,96205.00
2023-04-13T22:00:43.382Z,96213.00
2023-04-13T22:03:13.334Z,96204.53
2023-04-13T22:05:42.952Z,96202.78
2023-04-13T22:08:12.739Z,96199.44
2023-04-13T22:10:41.194Z,96201.25
2023-04-13T22:13:09.545Z,96211.53
2023-04-13T22:15:38.003Z,96194.50
2023-04-13T22:18:06.721Z,96207.22
2023-04-13T22:20:34.989Z,96211.56
2023-04-13T22:23:03.284Z,96208.25
2023-04-13T22:25:33.023Z,96205.53
2023-04-13T22:28:01.338Z,96200.47
2023-04-13T22:30:29.971Z,96195.25
2023-04-13T22:32:58.360Z,96194.56
2023-04-13T22:35:27.419Z,96196.34
2023-04-13T22:37:56.212Z,96195.44
2023-04-13T22:40:24.775Z,96195.53
2023-04-13T22:42:55.965Z,96181.88
2023-04-13T22:45:24.371Z,96191.22
2023-04-13T22:47:54.597Z,96190.22
2023-04-13T22:50:22.980Z,96193.78
2023-04-13T22:52:53.331Z,96181.78
2023-04-13T22:55:21.750Z,96180.00
2023-04-13T22:57:50.056Z,96175.97
2023-04-13T23:00:20.869Z,96184.47
2023-04-13T23:02:50.725Z,96154.66
2023-04-13T23:05:21.580Z,96151.25
2023-04-13T23:07:50.537Z,96157.19
2023-04-13T23:10:19.360Z,96145.19
2023-04-13T23:12:47.840Z,96155.47
2023-04-13T23:15:16.383Z,96146.06
2023-04-13T23:17:46.318Z,96151.34
2023-04-13T23:20:15.490Z,96146.06
2023-04-13T23:22:45.717Z,96152.97
2023-04-13T23:25:14.060Z,96144.47
2023-04-13T23:27:42.579Z,96147.97
2023-04-13T23:30:11.729Z,96147.88
2023-04-13T23:32:40.054Z,96141.13
2023-04-13T23:35:10.729Z,96127.44
2023-04-13T23:37:40.512Z,96128.25
2023-04-13T23:40:10.939Z,96116.13
2023-04-13T23:42:39.142Z,96112.06
2023-04-13T23:45:08.938Z,96118.97
2023-04-13T23:47:38.040Z,96121.38
2023-04-13T23:50:07.754Z,96127.47
2023-04-13T23:52:37.379Z,96117.13
2023-04-13T23:55:06.284Z,96112.69
2023-04-13T23:57:35.243Z,96121.34
